Time;durP1;ratioP1;P1;durP2;ratioP2;P2;SDS_P1;SDS_P2;PMS_P1;PMS_P2;Temp;Humidity;BMP_temperature;BMP_pressure;BME280_temperature;BME280_humidity;BME280_pressure;Samples;Min_cycle;Max_cycle;Signal;HPM_P1;HPM_P2
2022/07/07 00:01:08;;;;;;;0.10;0.10;;;;;;;22.22;52.26;101729.19;5118304;28;20050;-43
2022/07/07 00:03:34;;;;;;;0.10;0.10;;;;;;;22.22;52.25;101726.41;5119997;28;20435;-41
2022/07/07 00:05:59;;;;;;;0.10;0.10;;;;;;;22.22;52.29;101724.47;5118072;28;20047;-41
2022/07/07 00:08:26;;;;;;;0.10;0.10;;;;;;;22.21;52.30;101721.97;5120817;28;20165;-41
2022/07/07 00:10:51;;;;;;;0.10;0.10;;;;;;;22.21;52.29;101710.88;5115496;28;20138;-41
2022/07/07 00:13:17;;;;;;;0.10;0.10;;;;;;;22.21;52.29;101706.16;5119172;28;20039;-43
2022/07/07 00:15:45;;;;;;;0.10;0.10;;;;;;;22.20;52.27;101706.47;5118374;28;20071;-41
2022/07/07 00:18:12;;;;;;;0.10;0.10;;;;;;;22.21;52.32;101708.09;5123335;27;20063;-43
2022/07/07 00:20:38;;;;;;;0.10;0.10;;;;;;;22.21;52.21;101714.47;5103259;28;20047;-41
2022/07/07 00:23:04;;;;;;;0.10;0.10;;;;;;;22.20;52.39;101712.81;5122575;28;20055;-42
2022/07/07 00:25:29;;;;;;;0.10;0.10;;;;;;;22.21;52.33;101717.25;5127889;28;20487;-41
2022/07/07 00:27:55;;;;;;;0.10;0.10;;;;;;;22.21;52.33;101706.16;5100507;28;20035;-43
2022/07/07 00:30:21;;;;;;;0.10;0.10;;;;;;;22.21;52.36;101708.09;5120522;28;20043;-43
2022/07/07 00:32:46;;;;;;;0.10;0.10;;;;;;;22.21;52.17;101697.00;5102160;28;20044;-41
2022/07/07 00:35:12;;;;;;;0.10;0.10;;;;;;;22.21;52.20;101692.28;5123504;28;20043;-41
2022/07/07 00:37:39;;;;;;;0.10;0.10;;;;;;;22.20;52.25;101687.88;5101403;28;20142;-40
2022/07/07 00:40:06;;;;;;;0.10;0.10;;;;;;;22.20;52.22;101678.72;5099551;28;20078;-41
2022/07/07 00:42:31;;;;;;;0.10;0.10;;;;;;;22.21;52.30;101674.81;5099890;28;20072;-41
2022/07/07 00:44:57;;;;;;;0.10;0.10;;;;;;;22.20;52.25;101667.63;5123793;28;20061;-41
2022/07/07 00:47:23;;;;;;;0.10;0.10;;;;;;;22.21;52.22;101664.53;5100507;28;20043;-42
2022/07/07 00:49:48;;;;;;;0.10;0.10;;;;;;;22.21;52.21;101666.50;5127080;28;20047;-43
2022/07/07 00:52:15;;;;;;;0.10;0.10;;;;;;;22.22;52.17;101662.59;5103258;28;20500;-41
2022/07/07 00:54:50;;;;;;;0.10;0.10;;;;;;;22.22;52.19;101655.09;5120811;28;20469;-42
2022/07/07 00:57:15;;;;;;;0.10;0.10;;;;;;;22.22;52.23;101651.50;5120971;28;20036;-42
2022/07/07 00:59:57;;;;;;;0.10;0.10;;;;;;;22.22;52.27;101646.78;5120312;28;20035;-41
2022/07/07 01:02:23;;;;;;;0.10;0.10;;;;;;;22.20;52.28;101654.56;5117287;28;20078;-41
2022/07/07 01:04:48;;;;;;;0.10;0.10;;;;;;;22.21;52.25;101653.44;5119625;28;20078;-41
2022/07/07 01:07:14;;;;;;;0.13;0.13;;;;;;;22.22;52.20;101646.78;5118498;28;20043;-41
2022/07/07 01:09:41;;;;;;;0.10;0.10;;;;;;;22.21;52.22;101641.53;5119058;28;20040;-41
2022/07/07 01:12:07;;;;;;;0.10;0.10;;;;;;;22.22;52.32;101651.50;5119729;28;20134;-40
2022/07/07 01:14:33;;;;;;;0.10;0.10;;;;;;;22.21;52.20;101649.84;5125428;28;20050;-41
2022/07/07 01:16:58;;;;;;;0.10;0.10;;;;;;;22.20;52.36;101654.56;5117313;28;20043;-41
2022/07/07 01:19:24;;;;;;;0.10;0.10;;;;;;;22.20;52.30;101646.25;5120758;27;20051;-41
2022/07/07 01:21:53;;;;;;;0.10;0.10;;;;;;;22.20;52.27;101635.16;5103462;28;20075;-41
2022/07/07 01:24:22;;;;;;;0.10;0.10;;;;;;;22.20;52.28;101635.16;5117683;28;20085;-41
2022/07/07 01:26:47;;;;;;;0.10;0.10;;;;;;;22.19;52.19;101630.72;5103389;28;20149;-41
2022/07/07 01:29:13;;;;;;;0.10;0.10;;;;;;;22.20;52.30;101628.78;5101460;28;20493;-41
2022/07/07 01:31:39;;;;;;;0.10;0.10;;;;;;;22.21;52.22;101622.09;5124898;27;20077;-44
2022/07/07 01:34:05;;;;;;;0.10;0.10;;;;;;;22.21;52.21;101616.56;5123642;28;20040;-41
2022/07/07 01:36:31;;;;;;;0.10;0.10;;;;;;;22.20;52.34;101612.13;5102457;28;20562;-41
2022/07/07 01:38:56;;;;;;;0.10;0.10;;;;;;;22.21;52.20;101613.78;5120515;28;20054;-41
2022/07/07 01:41:22;;;;;;;0.10;0.10;;;;;;;22.21;52.30;101616.56;5122467;28;20396;-41
2022/07/07 01:43:48;;;;;;;0.10;0.10;;;;;;;22.21;52.30;101611.00;5123253;28;20043;-43
2022/07/07 01:46:13;;;;;;;0.10;0.10;;;;;;;22.20;52.26;101599.09;5118348;28;20047;-40
2022/07/07 01:48:40;;;;;;;0.10;0.10;;;;;;;22.21;52.18;101600.72;5117875;28;20501;-41
2022/07/07 01:51:05;;;;;;;0.10;0.10;;;;;;;22.21;52.14;101584.09;5123153;28;20480;-41
2022/07/07 01:53:31;;;;;;;0.10;0.10;;;;;;;22.19;52.21;101586.31;5120863;28;20043;-41
2022/07/07 01:56:02;;;;;;;0.10;0.10;;;;;;;22.20;52.35;101584.38;5124720;28;20051;-41
2022/07/07 01:58:29;;;;;;;0.10;0.10;;;;;;;22.19;52.35;101572.47;5089338;28;20512;-43
2022/07/07 02:00:55;;;;;;;0.10;0.10;;;;;;;22.19;52.32;101569.69;5117740;28;20090;-41
2022/07/07 02:03:20;;;;;;;0.10;0.10;;;;;;;22.19;52.51;101572.47;5121601;28;20055;-41
2022/07/07 02:05:46;;;;;;;0.10;0.10;;;;;;;22.20;52.30;101565.78;5121262;28;20044;-41
2022/07/07 02:08:12;;;;;;;0.10;0.10;;;;;;;22.20;52.42;101564.97;5116321;28;20058;-41
2022/07/07 02:13:23;;;;;;;0.10;0.10;;;;;;;22.20;52.22;101563.00;5104712;28;20134;-43
2022/07/07 02:15:50;;;;;;;0.10;0.10;;;;;;;22.20;51.95;101568.56;5122006;28;20063;-42
2022/07/07 02:18:16;;;;;;;0.10;0.10;;;;;;;22.22;52.27;101568.25;5116504;27;20496;-43
2022/07/07 02:20:42;;;;;;;0.10;0.10;;;;;;;22.20;52.36;101567.72;5119201;28;20477;-41
2022/07/07 02:23:08;;;;;;;0.10;0.10;;;;;;;22.21;52.14;101559.13;5121906;28;20047;-41
2022/07/07 02:25:33;;;;;;;0.10;0.10;;;;;;;22.19;52.19;101558.59;5119304;28;20092;-41
2022/07/07 02:27:59;;;;;;;0.10;0.10;;;;;;;22.21;52.28;101558.28;5119978;28;20058;-43
2022/07/07 02:30:25;;;;;;;0.10;0.10;;;;;;;22.21;52.39;101569.38;5118070;28;20043;-43
2022/07/07 02:32:51;;;;;;;0.10;0.10;;;;;;;22.21;52.27;101553.56;5119476;28;20039;-43
2022/07/07 02:35:16;;;;;;;0.10;0.10;;;;;;;22.19;52.44;101561.38;5118444;28;20138;-41
2022/07/07 02:37:42;;;;;;;0.10;0.10;;;;;;;22.21;52.12;101550.78;5118431;28;20046;-41
2022/07/07 02:40:08;;;;;;;0.10;0.10;;;;;;;22.20;52.28;101548.31;5118628;28;20051;-40
2022/07/07 02:42:34;;;;;;;0.10;0.10;;;;;;;22.19;52.23;101555.81;5118199;27;20446;-41
2022/07/07 02:45:00;;;;;;;0.10;0.10;;;;;;;22.21;52.21;101561.06;5120304;28;20078;-41
2022/07/07 02:47:26;;;;;;;0.10;0.10;;;;;;;22.20;52.58;101560.25;5112797;28;20049;-41
2022/07/07 02:49:51;;;;;;;0.10;0.10;;;;;;;22.19;52.45;101553.03;5116114;28;20047;-43
2022/07/07 02:52:17;;;;;;;0.10;0.10;;;;;;;22.19;52.30;101555.81;5123911;28;20043;-41
2022/07/07 02:54:43;;;;;;;0.10;0.10;;;;;;;22.20;52.38;101559.41;5097512;28;20047;-41
2022/07/07 02:57:08;;;;;;;0.10;0.10;;;;;;;22.20;52.44;101545.53;5115660;28;20483;-41
2022/07/07 02:59:36;;;;;;;0.10;0.10;;;;;;;22.21;52.12;101547.19;5119086;28;20371;-41
2022/07/07 03:02:02;;;;;;;0.10;0.10;;;;;;;22.20;52.44;101551.91;5121649;28;20074;-40
2022/07/07 03:04:28;;;;;;;0.10;0.10;;;;;;;22.19;52.36;101550.25;5102138;28;20846;-41
2022/07/07 03:06:53;;;;;;;0.10;0.10;;;;;;;22.20;52.44;101549.13;5117584;28;20043;-43
2022/07/07 03:09:19;;;;;;;0.10;0.10;;;;;;;22.21;52.08;101548.03;5119163;28;20500;-42
2022/07/07 03:11:45;;;;;;;0.10;0.10;;;;;;;22.21;52.54;101552.75;5122160;28;20035;-41
2022/07/07 03:14:10;;;;;;;0.10;0.10;;;;;;;22.20;52.26;101551.91;5116079;28;20113;-42
2022/07/07 03:16:36;;;;;;;0.10;0.10;;;;;;;22.20;52.14;101554.69;5116130;28;20051;-43
2022/07/07 03:19:02;;;;;;;0.10;0.10;;;;;;;22.20;52.37;101553.88;5120136;28;20138;-43
2022/07/07 03:21:27;;;;;;;0.10;0.10;;;;;;;22.19;52.34;101553.03;5123009;28;20050;-43
2022/07/07 03:23:53;;;;;;;0.10;0.10;;;;;;;22.21;52.00;101549.97;5115622;28;20051;-41
2022/07/07 03:26:19;;;;;;;0.10;0.10;;;;;;;22.20;51.97;101546.38;5120448;28;20050;-38
2022/07/07 03:28:44;;;;;;;0.10;0.10;;;;;;;22.19;52.21;101544.72;5124883;28;20044;-42
2022/07/07 03:31:10;;;;;;;0.10;0.10;;;;;;;22.20;52.38;101546.38;5120842;28;20366;-43
2022/07/07 03:33:36;;;;;;;0.10;0.10;;;;;;;22.20;52.22;101549.13;5116198;28;20370;-41
2022/07/07 03:36:02;;;;;;;0.10;0.10;;;;;;;22.21;52.25;101542.47;5119747;28;20052;-43
2022/07/07 03:38:28;;;;;;;0.10;0.10;;;;;;;22.19;52.35;101543.84;5115163;28;20139;-41
2022/07/07 03:40:53;;;;;;;0.10;0.10;;;;;;;22.19;52.38;101541.94;5120328;28;20039;-41
2022/07/07 03:43:26;;;;;;;0.10;0.10;;;;;;;22.20;52.32;101543.59;5120775;28;20439;-44
2022/07/07 03:45:53;;;;;;;0.10;0.10;;;;;;;22.21;52.50;101541.66;5114718;28;20050;-43
2022/07/07 03:48:19;;;;;;;0.10;0.10;;;;;;;22.20;52.21;101542.78;5096207;28;20473;-43
2022/07/07 03:50:44;;;;;;;0.10;0.10;;;;;;;22.19;52.51;101538.31;5119029;28;20042;-43
2022/07/07 03:53:10;;;;;;;0.15;0.15;;;;;;;22.20;52.39;101538.03;5118152;28;20467;-42
2022/07/07 03:55:35;;;;;;;0.10;0.10;;;;;;;22.20;52.26;101534.44;5122652;27;20088;-41
2022/07/07 03:58:01;;;;;;;0.10;0.10;;;;;;;22.20;52.33;101529.72;5120473;28;20043;-43
2022/07/07 04:00:27;;;;;;;0.10;0.10;;;;;;;22.20;52.04;101521.41;5124009;28;20076;-41
2022/07/07 04:02:52;;;;;;;0.10;0.10;;;;;;;22.20;52.18;101513.06;5121163;28;20466;-44
2022/07/07 04:05:18;;;;;;;0.10;0.10;;;;;;;22.20;52.28;101518.63;5123407;28;20138;-42
2022/07/07 04:07:45;;;;;;;0.10;0.10;;;;;;;22.21;52.25;101523.06;5122616;28;20135;-41
2022/07/07 04:10:11;;;;;;;0.10;0.10;;;;;;;22.19;52.48;101514.19;5119004;28;20063;-42
2022/07/07 04:12:36;;;;;;;0.15;0.15;;;;;;;22.20;52.20;101504.75;5118014;28;20154;-43
2022/07/07 04:15:03;;;;;;;0.10;0.10;;;;;;;22.21;52.28;101502.81;5123683;28;20065;-42
2022/07/07 04:17:29;;;;;;;0.10;0.10;;;;;;;22.19;52.28;101497.56;5123668;27;20066;-42
2022/07/07 04:19:54;;;;;;;0.10;0.10;;;;;;;22.18;52.37;101493.09;5119930;28;20097;-43
2022/07/07 04:22:20;;;;;;;0.10;0.10;;;;;;;22.20;52.44;101495.59;5123129;28;20043;-42
2022/07/07 04:24:46;;;;;;;0.10;0.10;;;;;;;22.20;52.30;101490.88;5102715;28;20401;-42
2022/07/07 04:27:11;;;;;;;0.10;0.10;;;;;;;22.20;52.33;101488.09;5100902;28;20397;-43
2022/07/07 04:29:37;;;;;;;0.10;0.10;;;;;;;22.19;52.30;101494.78;5121674;28;20054;-43
2022/07/07 04:32:04;;;;;;;0.10;0.10;;;;;;;22.20;52.25;101488.09;5121929;28;20043;-43
2022/07/07 04:34:29;;;;;;;0.10;0.10;;;;;;;22.21;52.27;101489.75;5122302;28;20078;-41
2022/07/07 04:36:55;;;;;;;0.10;0.10;;;;;;;22.21;52.28;101494.47;5125663;28;20482;-40
2022/07/07 04:39:21;;;;;;;0.10;0.10;;;;;;;22.20;52.19;101493.66;5120632;28;20470;-43
2022/07/07 04:41:46;;;;;;;0.10;0.10;;;;;;;22.21;52.28;101495.31;5089768;28;20062;-44
2022/07/07 04:44:12;;;;;;;0.10;0.10;;;;;;;22.19;52.32;101491.16;5124190;28;20097;-41
2022/07/07 04:46:38;;;;;;;0.10;0.10;;;;;;;22.21;52.32;101491.72;5118019;28;20054;-41
2022/07/07 04:49:03;;;;;;;0.10;0.10;;;;;;;22.21;52.17;101481.44;5126053;28;20051;-42
2022/07/07 04:51:29;;;;;;;0.10;0.10;;;;;;;22.22;52.29;101496.13;5125592;28;20047;-41
2022/07/07 04:53:55;;;;;;;0.10;0.10;;;;;;;22.20;52.33;101490.06;5120328;28;20488;-42
2022/07/07 04:56:21;;;;;;;0.20;0.20;;;;;;;22.21;52.30;101502.81;5120483;28;20044;-42
2022/07/07 04:58:47;;;;;;;0.10;0.10;;;;;;;22.20;52.30;101492.84;5120449;28;20050;-41
2022/07/07 05:01:12;;;;;;;0.10;0.10;;;;;;;22.19;52.34;101503.09;5126163;28;20393;-43
2022/07/07 05:03:38;;;;;;;0.10;0.10;;;;;;;22.19;52.48;101499.47;5121337;28;20057;-43
2022/07/07 05:06:04;;;;;;;0.10;0.10;;;;;;;22.19;52.35;101494.78;5103853;28;20055;-42
2022/07/07 05:08:30;;;;;;;0.10;0.10;;;;;;;22.18;52.53;101501.41;5117331;28;20047;-42
2022/07/07 05:10:56;;;;;;;0.10;0.10;;;;;;;22.19;52.34;101500.31;5116865;28;20116;-42
2022/07/07 05:13:21;;;;;;;0.10;0.10;;;;;;;22.20;52.29;101501.16;5100740;28;20509;-42
2022/07/07 05:15:48;;;;;;;0.10;0.10;;;;;;;22.21;52.30;101500.03;5121868;27;20099;-42
2022/07/07 05:18:15;;;;;;;0.10;0.10;;;;;;;22.21;52.25;101508.34;5115823;28;20501;-42
2022/07/07 05:20:40;;;;;;;0.10;0.10;;;;;;;22.20;52.37;101513.06;5124469;28;20174;-43
2022/07/07 05:23:06;;;;;;;0.10;0.10;;;;;;;22.20;52.38;101517.78;5120647;28;20100;-42
2022/07/07 05:25:32;;;;;;;0.10;0.10;;;;;;;22.20;52.34;101529.72;5100159;28;20040;-42
2022/07/07 05:27:58;;;;;;;0.10;0.10;;;;;;;22.18;52.32;101531.94;5118736;28;20539;-41
2022/07/07 05:30:23;;;;;;;0.10;0.10;;;;;;;22.19;52.34;101536.41;5119403;28;20043;-43
2022/07/07 05:32:49;;;;;;;0.10;0.10;;;;;;;22.17;52.11;101535.84;5123657;28;20182;-42
2022/07/07 05:35:16;;;;;;;0.10;0.10;;;;;;;22.19;52.29;101536.41;5120096;28;20466;-43
2022/07/07 05:37:41;;;;;;;0.10;0.10;;;;;;;22.18;52.37;101539.44;5123157;28;20039;-43
2022/07/07 05:40:08;;;;;;;0.10;0.10;;;;;;;22.20;52.42;101546.38;5101916;28;20055;-42
2022/07/07 05:42:34;;;;;;;0.10;0.10;;;;;;;22.21;52.34;101549.97;5120573;28;20080;-43
2022/07/07 05:44:59;;;;;;;0.10;0.10;;;;;;;22.20;52.43;101548.31;5122992;28;20050;-44
2022/07/07 05:47:25;;;;;;;0.10;0.10;;;;;;;22.19;52.21;101550.25;5122272;28;20382;-45
2022/07/07 05:49:51;;;;;;;0.10;0.10;;;;;;;22.20;52.30;101549.13;5116387;28;20039;-42
2022/07/07 05:52:16;;;;;;;0.10;0.10;;;;;;;22.20;52.34;101548.31;5123093;28;20047;-42
2022/07/07 05:54:42;;;;;;;0.10;0.10;;;;;;;22.18;52.22;101542.22;5120431;28;20390;-41
2022/07/07 05:57:08;;;;;;;0.10;0.10;;;;;;;22.19;52.21;101550.25;5118987;28;20051;-40
2022/07/07 05:59:33;;;;;;;0.10;0.10;;;;;;;22.20;52.16;101548.31;5119968;28;20089;-41
2022/07/07 06:01:59;;;;;;;0.10;0.10;;;;;;;22.17;52.38;101552.47;5121535;28;20405;-41
2022/07/07 06:04:26;;;;;;;0.10;0.10;;;;;;;22.19;52.34;101564.13;5119088;28;20044;-42
2022/07/07 06:06:52;;;;;;;0.10;0.10;;;;;;;22.19;52.32;101569.69;5118368;28;20050;-42
2022/07/07 06:09:18;;;;;;;0.10;0.10;;;;;;;22.19;52.39;101566.91;5105673;28;20134;-42
2022/07/07 06:11:44;;;;;;;0.10;0.10;;;;;;;22.21;52.32;101570.22;5118544;28;20131;-42
2022/07/07 06:14:10;;;;;;;0.10;0.10;;;;;;;22.20;52.51;101573.28;5119737;28;20134;-42
2022/07/07 06:16:39;;;;;;;0.10;0.10;;;;;;;22.19;52.43;101568.81;5097195;28;20406;-39
2022/07/07 06:19:05;;;;;;;0.10;0.10;;;;;;;22.19;52.47;101571.59;5121567;27;20075;-41
2022/07/07 06:21:31;;;;;;;0.10;0.10;;;;;;;22.18;52.51;101575.50;5125286;28;20047;-43
2022/07/07 06:23:56;;;;;;;0.10;0.10;;;;;;;22.19;52.39;101589.09;5122339;28;20056;-42
2022/07/07 06:26:22;;;;;;;0.10;0.10;;;;;;;22.20;52.42;101584.38;5120540;28;20039;-43
2022/07/07 06:28:48;;;;;;;0.10;0.10;;;;;;;22.20;52.34;101590.75;5121090;28;20474;-38
2022/07/07 06:31:14;;;;;;;0.10;0.10;;;;;;;22.20;52.39;101589.94;5118926;28;20144;-41
2022/07/07 06:33:39;;;;;;;0.10;0.10;;;;;;;22.18;52.51;101600.47;5121318;28;20100;-40
2022/07/07 06:36:05;;;;;;;0.10;0.10;;;;;;;22.19;52.28;101597.44;5116715;28;20051;-42
2022/07/07 06:38:31;;;;;;;0.10;0.10;;;;;;;22.20;52.41;101592.72;5120977;28;20048;-43
2022/07/07 06:40:58;;;;;;;0.10;0.10;;;;;;;22.20;52.28;101596.31;5119684;28;20039;-40
2022/07/07 06:43:24;;;;;;;0.10;0.10;;;;;;;22.19;52.29;101591.88;5117717;28;20157;-43
2022/07/07 06:45:50;;;;;;;0.10;0.10;;;;;;;22.18;52.41;101594.91;5118120;28;20470;-41
2022/07/07 06:48:15;;;;;;;0.10;0.10;;;;;;;22.20;52.46;101595.47;5124846;28;20054;-41
2022/07/07 06:50:41;;;;;;;0.10;0.10;;;;;;;22.19;52.32;101596.56;5121059;28;20035;-41
2022/07/07 06:53:07;;;;;;;0.10;0.10;;;;;;;22.19;52.35;101605.75;5122043;28;20035;-42
2022/07/07 06:55:33;;;;;;;0.10;0.10;;;;;;;22.18;52.57;101597.69;5121094;28;20042;-44
2022/07/07 06:57:58;;;;;;;0.10;0.10;;;;;;;22.20;52.42;101612.13;5121381;28;20043;-43
2022/07/07 07:00:24;;;;;;;0.10;0.10;;;;;;;22.19;52.39;101605.75;5118855;28;20049;-43
2022/07/07 07:02:50;;;;;;;0.10;0.10;;;;;;;22.20;52.21;101612.13;5115805;28;20367;-42
2022/07/07 07:05:16;;;;;;;0.10;0.10;;;;;;;22.19;52.30;101608.53;5120136;28;20039;-42
2022/07/07 07:07:42;;;;;;;0.10;0.10;;;;;;;22.17;52.37;101607.97;5099013;28;20413;-41
2022/07/07 07:10:08;;;;;;;0.10;0.10;;;;;;;22.20;52.33;101614.91;5116207;28;20503;-41
2022/07/07 07:12:34;;;;;;;0.10;0.10;;;;;;;22.20;52.33;101621.28;5119401;28;20039;-41
2022/07/07 07:15:00;;;;;;;0.10;0.10;;;;;;;22.18;52.29;101622.66;5119629;27;20420;-43
2022/07/07 07:17:25;;;;;;;0.10;0.10;;;;;;;22.17;52.36;101632.94;5115336;28;20084;-43
2022/07/07 07:19:52;;;;;;;0.10;0.10;;;;;;;22.19;52.38;101627.94;5121582;28;20043;-41
2022/07/07 07:22:17;;;;;;;0.10;0.10;;;;;;;22.18;52.19;101636.53;5117669;28;20494;-42
2022/07/07 07:24:43;;;;;;;0.10;0.10;;;;;;;22.18;52.38;101629.03;5123786;28;20050;-43
2022/07/07 07:27:09;;;;;;;0.10;0.10;;;;;;;22.19;52.36;101641.81;5115927;28;20082;-42
2022/07/07 07:29:34;;;;;;;0.10;0.10;;;;;;;22.17;52.60;101641.25;5119844;28;20040;-43
2022/07/07 07:32:00;;;;;;;0.10;0.10;;;;;;;22.19;52.39;101641.81;5122903;28;20043;-42
2022/07/07 07:34:26;;;;;;;0.10;0.10;;;;;;;22.19;52.39;101640.97;5123261;28;20375;-42
2022/07/07 07:36:51;;;;;;;0.10;0.10;;;;;;;22.20;52.27;101639.88;5120465;28;20054;-41
2022/07/07 07:39:17;;;;;;;0.10;0.10;;;;;;;22.18;52.24;101630.97;5123253;28;20062;-42
2022/07/07 07:41:43;;;;;;;0.10;0.10;;;;;;;22.18;52.33;101647.63;5118163;28;20393;-41
2022/07/07 07:44:10;;;;;;;0.10;0.10;;;;;;;22.17;52.49;101654.31;5120966;28;20633;-42
2022/07/07 07:46:35;;;;;;;0.10;0.10;;;;;;;22.17;52.44;101655.13;5115514;28;20123;-42
2022/07/07 07:49:05;;;;;;;0.10;0.10;;;;;;;22.18;52.33;101669.81;5121465;28;20054;-42
2022/07/07 07:51:32;;;;;;;0.10;0.10;;;;;;;22.18;52.47;101667.03;5121048;28;20082;-42
2022/07/07 07:53:58;;;;;;;0.10;0.10;;;;;;;22.17;52.46;101666.22;5121496;28;20093;-42
2022/07/07 07:56:23;;;;;;;0.10;0.10;;;;;;;22.16;52.57;101672.91;5120144;28;20316;-43
2022/07/07 07:58:49;;;;;;;0.10;0.10;;;;;;;22.17;52.55;101673.72;5122562;28;20046;-41
2022/07/07 08:01:15;;;;;;;0.10;0.10;;;;;;;22.17;52.46;101671.78;5125918;28;20088;-43
2022/07/07 08:03:41;;;;;;;0.10;0.10;;;;;;;22.17;52.45;101673.72;5119841;28;20050;-40
2022/07/07 08:06:07;;;;;;;0.10;0.10;;;;;;;22.18;52.44;101672.59;5119917;28;20070;-42
2022/07/07 08:08:32;;;;;;;0.10;0.10;;;;;;;22.19;52.42;101685.34;5121126;28;20061;-42
2022/07/07 08:10:58;;;;;;;0.10;0.10;;;;;;;22.17;52.62;101677.31;5095464;28;20047;-42
2022/07/07 08:13:24;;;;;;;0.10;0.10;;;;;;;22.17;52.16;101680.09;5101337;28;20096;-41
2022/07/07 08:15:51;;;;;;;0.10;0.10;;;;;;;22.15;52.39;101679.56;5089456;28;20397;-42
2022/07/07 08:18:16;;;;;;;0.10;0.10;;;;;;;22.17;52.55;101684.81;5106618;28;20039;-41
2022/07/07 08:20:42;;;;;;;0.10;0.10;;;;;;;22.17;52.37;101677.31;5121599;28;20053;-41
2022/07/07 08:23:08;;;;;;;0.10;0.10;;;;;;;22.19;52.43;101690.91;5119690;28;20095;-42
2022/07/07 08:25:34;;;;;;;0.10;0.10;;;;;;;22.18;52.65;101697.56;5121283;28;20063;-41
2022/07/07 08:28:00;;;;;;;0.10;0.10;;;;;;;22.18;52.53;101697.56;5124133;28;20039;-42
2022/07/07 08:30:25;;;;;;;0.10;0.10;;;;;;;22.18;52.39;101708.66;5116861;28;20086;-42
2022/07/07 08:32:51;;;;;;;0.10;0.10;;;;;;;22.17;52.66;101712.56;5122132;28;20039;-44
2022/07/07 08:35:17;;;;;;;0.10;0.10;;;;;;;22.17;52.48;101712.56;5103502;28;20210;-41
2022/07/07 08:37:43;;;;;;;0.10;0.10;;;;;;;22.19;52.44;101718.63;5122863;28;20043;-41
2022/07/07 08:40:09;;;;;;;0.10;0.10;;;;;;;22.21;52.47;101719.22;5103367;28;20047;-43
2022/07/07 08:42:38;;;;;;;0.10;0.10;;;;;;;22.18;52.45;101719.75;5101516;28;20083;-41
2022/07/07 08:45:04;;;;;;;0.10;0.10;;;;;;;22.17;52.69;101724.47;5120328;28;20166;-42
2022/07/07 08:47:30;;;;;;;0.10;0.10;;;;;;;22.17;52.75;101718.09;5108607;28;20124;-43
2022/07/07 08:49:56;;;;;;;0.10;0.10;;;;;;;22.17;52.54;101726.44;5116670;27;20043;-42
2022/07/07 08:52:21;;;;;;;0.10;0.10;;;;;;;22.17;52.67;101729.22;5102999;28;20382;-43
2022/07/07 08:54:47;;;;;;;0.10;0.10;;;;;;;22.16;52.51;101725.59;5120259;28;20051;-42
2022/07/07 08:57:13;;;;;;;0.10;0.10;;;;;;;22.17;52.70;101734.75;5117709;28;20040;-42
2022/07/07 08:59:39;;;;;;;0.10;0.10;;;;;;;22.18;52.69;101739.19;5123162;28;20083;-43
2022/07/07 09:02:09;;;;;;;0.10;0.10;;;;;;;22.17;52.63;101726.44;5119962;28;20039;-42
2022/07/07 09:04:34;;;;;;;0.10;0.10;;;;;;;22.17;52.75;101734.75;5105613;28;20082;-43
2022/07/07 09:07:03;;;;;;;0.10;0.10;;;;;;;22.17;52.66;101751.41;5123286;28;20043;-42
2022/07/07 09:09:38;;;;;;;0.10;0.10;;;;;;;22.16;52.56;101755.28;5083911;28;20086;-43
2022/07/07 09:12:04;;;;;;;0.10;0.10;;;;;;;22.16;52.58;101752.53;5102468;28;20071;-43
2022/07/07 09:14:36;;;;;;;0.10;0.10;;;;;;;22.17;52.77;101759.72;5121081;28;20043;-44
2022/07/07 09:17:03;;;;;;;0.10;0.10;;;;;;;22.16;52.62;101755.28;5120991;28;20112;-42
2022/07/07 09:19:29;;;;;;;0.10;0.10;;;;;;;22.17;52.69;101749.44;5122447;28;20039;-43
2022/07/07 09:21:54;;;;;;;0.10;0.10;;;;;;;22.17;52.60;101759.72;5124684;28;20035;-43
2022/07/07 09:24:20;;;;;;;0.10;0.10;;;;;;;22.16;52.56;101758.91;5124049;28;20047;-42
2022/07/07 09:26:48;;;;;;;0.10;0.10;;;;;;;22.17;52.61;101774.41;5124497;28;20046;-43
2022/07/07 09:29:18;;;;;;;0.10;0.10;;;;;;;22.15;52.70;101776.66;5104074;28;20070;-41
2022/07/07 09:31:52;;;;;;;0.10;0.10;;;;;;;22.16;52.54;101777.50;5101417;28;20078;-43
2022/07/07 09:34:19;;;;;;;0.10;0.10;;;;;;;22.17;52.64;101790.25;5105747;28;20370;-42
2022/07/07 09:39:46;;;;;;;0.10;0.10;;;;;;;22.17;52.44;101791.06;5104241;28;20120;-43
2022/07/07 09:42:33;;;;;;;0.10;0.10;;;;;;;22.16;52.49;101791.34;5073450;28;20043;-42
2022/07/07 09:45:08;;;;;;;0.10;0.10;;;;;;;22.17;52.53;101793.00;5119529;28;20047;-42
2022/07/07 09:47:34;;;;;;;0.10;0.10;;;;;;;22.16;52.74;101791.34;5104898;28;20435;-42
2022/07/07 09:50:14;;;;;;;0.10;0.10;;;;;;;22.16;52.73;101791.34;5119211;27;20397;-42
2022/07/07 09:52:42;;;;;;;0.10;0.10;;;;;;;22.16;52.53;101797.72;5101879;28;20180;-42
2022/07/07 09:55:09;;;;;;;0.10;0.10;;;;;;;22.16;52.53;101796.91;5104161;28;20090;-42
2022/07/07 09:57:36;;;;;;;0.10;0.10;;;;;;;22.18;52.67;101806.59;5123479;28;20200;-42
2022/07/07 10:00:03;;;;;;;0.10;0.10;;;;;;;22.16;52.67;101806.06;5098411;28;20381;-42
2022/07/07 10:02:32;;;;;;;0.10;0.10;;;;;;;22.17;52.60;101804.09;5100508;28;20084;-43
2022/07/07 10:05:00;;;;;;;0.10;0.10;;;;;;;22.16;52.84;101803.28;5122955;28;20093;-42
2022/07/07 10:07:28;;;;;;;0.10;0.10;;;;;;;22.17;52.57;101809.66;5103512;28;20071;-42
2022/07/07 10:09:56;;;;;;;0.10;0.10;;;;;;;22.16;52.72;101817.16;5104252;28;20112;-42
2022/07/07 10:12:24;;;;;;;0.10;0.10;;;;;;;22.17;52.63;101820.75;5102418;28;20078;-42
2022/07/07 10:14:54;;;;;;;0.10;0.10;;;;;;;22.16;52.68;101825.47;5123213;28;20507;-43
2022/07/07 10:17:21;;;;;;;0.10;0.10;;;;;;;22.16;52.58;101825.47;5116582;28;20075;-42
2022/07/07 10:19:47;;;;;;;0.10;0.10;;;;;;;22.16;52.57;101825.47;5123559;28;20082;-43
2022/07/07 10:22:14;;;;;;;0.10;0.10;;;;;;;22.15;52.67;101829.38;5118223;28;20066;-42
2022/07/07 10:24:43;;;;;;;0.10;0.10;;;;;;;22.16;52.67;101835.75;5119851;28;20083;-41
2022/07/07 10:27:14;;;;;;;0.10;0.10;;;;;;;22.16;52.63;101833.81;5117177;28;20043;-42
2022/07/07 10:29:57;;;;;;;0.10;0.10;;;;;;;22.16;52.62;101832.97;5119623;28;20063;-43
2022/07/07 10:32:39;;;;;;;0.10;0.10;;;;;;;22.15;52.73;101836.84;5099557;28;20078;-43
2022/07/07 10:35:09;;;;;;;0.10;0.10;;;;;;;22.17;52.67;101831.84;5100348;28;20473;-41
2022/07/07 10:37:43;;;;;;;0.10;0.10;;;;;;;22.16;52.37;101833.81;5116972;27;20560;-43
2022/07/07 10:40:17;;;;;;;0.10;0.10;;;;;;;22.17;52.66;101845.72;5122435;27;20070;-42
2022/07/07 10:45:31;;;;;;;0.10;0.10;;;;;;;22.16;52.58;101869.03;5178889;27;20124;-40
2022/07/07 10:47:57;;;;;;;0.10;0.10;;;;;;;22.15;52.62;101861.81;5143808;27;20173;-40
2022/07/07 10:50:26;;;;;;;0.10;0.10;;;;;;;22.17;52.71;101867.91;5169377;27;20748;-41
2022/07/07 10:52:52;;;;;;;0.10;0.10;;;;;;;22.16;52.71;101866.25;5148908;27;20085;-41
2022/07/07 10:55:56;;;;;;;0.10;0.10;;;;;;;22.16;52.62;101874.59;5136733;27;20048;-40
2022/07/07 10:58:45;;;;;;;0.10;0.10;;;;;;;22.17;52.61;101879.03;5147246;27;20074;-42
2022/07/07 11:01:11;;;;;;;0.10;0.10;;;;;;;22.15;52.68;101870.97;5151555;27;20072;-40
2022/07/07 11:03:37;;;;;;;0.10;0.10;;;;;;;22.16;52.66;101874.59;5167850;27;20046;-41
2022/07/07 11:06:03;;;;;;;0.10;0.10;;;;;;;22.16;52.63;101877.38;5167399;27;20049;-40
2022/07/07 11:08:35;;;;;;;0.10;0.10;;;;;;;22.15;52.63;101873.75;5166282;27;20091;-40
2022/07/07 11:11:03;;;;;;;0.10;0.10;;;;;;;22.16;52.72;101872.63;5167753;27;20455;-41
2022/07/07 11:13:32;;;;;;;0.10;0.10;;;;;;;22.16;52.62;101877.38;5148348;27;20092;-39
2022/07/07 11:16:19;;;;;;;0.10;0.10;;;;;;;22.15;52.65;101882.09;5165750;27;20500;-40
2022/07/07 11:18:49;;;;;;;0.10;0.10;;;;;;;22.15;52.72;101881.22;5149919;27;20391;-41
2022/07/07 11:21:15;;;;;;;0.10;0.10;;;;;;;22.16;52.97;101885.69;5148038;27;20045;-41
2022/07/07 11:23:48;;;;;;;0.20;0.20;;;;;;;22.16;52.67;101889.28;5166754;27;20038;-40
2022/07/07 11:26:23;;;;;;;0.10;0.10;;;;;;;22.16;52.59;101891.22;5148242;27;20074;-43
2022/07/07 11:28:51;;;;;;;0.10;0.10;;;;;;;22.15;52.60;101895.97;5164093;27;20115;-40
2022/07/07 11:31:16;;;;;;;;;;;;;;;22.16;52.70;101905.94;5166217;27;20038;-41